sensor_id;sensor_type;location;lat;lon;timestamp;P1;durP1;ratioP1;P2;durP2;ratioP2
78887;SDS011;68276;49.326;8.690;2023-04-15T00:01:01;7.97;;;2.72;;
78887;SDS011;68276;49.326;8.690;2023-04-15T00:03:26;8.57;;;2.97;;
78887;SDS011;68276;49.326;8.690;2023-04-15T00:05:52;9.20;;;2.60;;
78887;SDS011;68276;49.326;8.690;2023-04-15T00:08:17;9.00;;;2.70;;
78887;SDS011;68276;49.326;8.690;2023-04-15T00:10:44;11.40;;;2.60;;
78887;SDS011;68276;49.326;8.690;2023-04-15T00:13:10;6.70;;;1.95;;
78887;SDS011;68276;49.326;8.690;2023-04-15T00:15:36;5.90;;;1.80;;
78887;SDS011;68276;49.326;8.690;2023-04-15T00:18:02;5.18;;;1.60;;
78887;SDS011;68276;49.326;8.690;2023-04-15T00:20:28;5.38;;;1.50;;
78887;SDS011;68276;49.326;8.690;2023-04-15T00:22:54;4.57;;;1.70;;
78887;SDS011;68276;49.326;8.690;2023-04-15T00:25:19;5.20;;;1.40;;
78887;SDS011;68276;49.326;8.690;2023-04-15T00:27:44;5.47;;;1.50;;
78887;SDS011;68276;49.326;8.690;2023-04-15T00:30:10;7.70;;;1.83;;
78887;SDS011;68276;49.326;8.690;2023-04-15T00:32:35;6.15;;;2.00;;
78887;SDS011;68276;49.326;8.690;2023-04-15T00:35:01;9.77;;;2.00;;
78887;SDS011;68276;49.326;8.690;2023-04-15T00:37:27;4.95;;;1.40;;
78887;SDS011;68276;49.326;8.690;2023-04-15T00:39:53;5.70;;;1.58;;
78887;SDS011;68276;49.326;8.690;2023-04-15T00:42:18;4.23;;;1.40;;
78887;SDS011;68276;49.326;8.690;2023-04-15T00:44:45;6.50;;;1.30;;
78887;SDS011;68276;49.326;8.690;2023-04-15T00:47:11;6.03;;;1.58;;
78887;SDS011;68276;49.326;8.690;2023-04-15T00:49:36;6.38;;;2.53;;
78887;SDS011;68276;49.326;8.690;2023-04-15T00:52:02;8.60;;;2.47;;
78887;SDS011;68276;49.326;8.690;2023-04-15T00:54:28;8.93;;;1.90;;
78887;SDS011;68276;49.326;8.690;2023-04-15T00:56:53;6.38;;;1.55;;
78887;SDS011;68276;49.326;8.690;2023-04-15T00:59:19;6.37;;;1.70;;
78887;SDS011;68276;49.326;8.690;2023-04-15T01:01:45;7.40;;;2.00;;
78887;SDS011;68276;49.326;8.690;2023-04-15T01:04:11;7.43;;;2.10;;
78887;SDS011;68276;49.326;8.690;2023-04-15T01:06:37;7.82;;;2.30;;
78887;SDS011;68276;49.326;8.690;2023-04-15T01:09:02;8.30;;;2.58;;
78887;SDS011;68276;49.326;8.690;2023-04-15T01:11:28;7.40;;;2.45;;
78887;SDS011;68276;49.326;8.690;2023-04-15T01:16:21;6.15;;;1.90;;
78887;SDS011;68276;49.326;8.690;2023-04-15T01:18:47;8.82;;;2.50;;
78887;SDS011;68276;49.326;8.690;2023-04-15T01:21:13;8.43;;;2.20;;
78887;SDS011;68276;49.326;8.690;2023-04-15T01:23:38;6.78;;;1.90;;
78887;SDS011;68276;49.326;8.690;2023-04-15T01:26:05;6.97;;;1.95;;
78887;SDS011;68276;49.326;8.690;2023-04-15T01:28:33;6.85;;;2.30;;
78887;SDS011;68276;49.326;8.690;2023-04-15T01:31:09;7.97;;;2.42;;
78887;SDS011;68276;49.326;8.690;2023-04-15T01:33:36;5.72;;;1.77;;
78887;SDS011;68276;49.326;8.690;2023-04-15T01:36:02;7.13;;;2.08;;
78887;SDS011;68276;49.326;8.690;2023-04-15T01:38:29;7.28;;;1.83;;
78887;SDS011;68276;49.326;8.690;2023-04-15T01:40:55;5.05;;;1.67;;
78887;SDS011;68276;49.326;8.690;2023-04-15T01:43:21;7.32;;;2.30;;
78887;SDS011;68276;49.326;8.690;2023-04-15T01:45:47;6.05;;;1.90;;
78887;SDS011;68276;49.326;8.690;2023-04-15T01:48:12;5.70;;;2.00;;
78887;SDS011;68276;49.326;8.690;2023-04-15T01:50:37;6.80;;;2.20;;
78887;SDS011;68276;49.326;8.690;2023-04-15T01:53:03;7.00;;;2.53;;
78887;SDS011;68276;49.326;8.690;2023-04-15T01:55:28;7.82;;;2.30;;
78887;SDS011;68276;49.326;8.690;2023-04-15T01:57:54;8.65;;;2.30;;
78887;SDS011;68276;49.326;8.690;2023-04-15T02:00:20;6.22;;;1.95;;
78887;SDS011;68276;49.326;8.690;2023-04-15T02:02:47;7.63;;;2.10;;
78887;SDS011;68276;49.326;8.690;2023-04-15T02:05:12;6.15;;;2.17;;
78887;SDS011;68276;49.326;8.690;2023-04-15T02:07:38;10.98;;;2.22;;
78887;SDS011;68276;49.326;8.690;2023-04-15T02:10:04;8.13;;;2.35;;
78887;SDS011;68276;49.326;8.690;2023-04-15T02:12:29;7.57;;;2.20;;
78887;SDS011;68276;49.326;8.690;2023-04-15T02:14:55;5.85;;;1.98;;
78887;SDS011;68276;49.326;8.690;2023-04-15T02:17:20;7.13;;;2.00;;
78887;SDS011;68276;49.326;8.690;2023-04-15T02:19:46;7.00;;;2.00;;
78887;SDS011;68276;49.326;8.690;2023-04-15T02:22:12;7.70;;;2.42;;
78887;SDS011;68276;49.326;8.690;2023-04-15T02:24:42;7.55;;;2.20;;
78887;SDS011;68276;49.326;8.690;2023-04-15T02:27:08;6.32;;;1.83;;
78887;SDS011;68276;49.326;8.690;2023-04-15T02:29:33;6.88;;;2.00;;
78887;SDS011;68276;49.326;8.690;2023-04-15T02:31:59;5.50;;;1.58;;
78887;SDS011;68276;49.326;8.690;2023-04-15T02:34:24;5.93;;;1.87;;
78887;SDS011;68276;49.326;8.690;2023-04-15T02:36:51;6.15;;;1.80;;
78887;SDS011;68276;49.326;8.690;2023-04-15T02:39:21;6.15;;;2.00;;
78887;SDS011;68276;49.326;8.690;2023-04-15T02:41:46;7.68;;;2.00;;
78887;SDS011;68276;49.326;8.690;2023-04-15T02:44:15;6.70;;;2.05;;
78887;SDS011;68276;49.326;8.690;2023-04-15T02:46:44;8.45;;;2.20;;
78887;SDS011;68276;49.326;8.690;2023-04-15T02:49:12;8.25;;;1.92;;
78887;SDS011;68276;49.326;8.690;2023-04-15T02:51:38;8.57;;;2.10;;
78887;SDS011;68276;49.326;8.690;2023-04-15T02:54:03;8.80;;;1.93;;
78887;SDS011;68276;49.326;8.690;2023-04-15T02:56:29;8.27;;;2.25;;
78887;SDS011;68276;49.326;8.690;2023-04-15T02:58:55;6.72;;;2.13;;
78887;SDS011;68276;49.326;8.690;2023-04-15T03:01:20;5.45;;;1.70;;
78887;SDS011;68276;49.326;8.690;2023-04-15T03:03:46;7.68;;;1.88;;
78887;SDS011;68276;49.326;8.690;2023-04-15T03:06:11;8.43;;;2.87;;
78887;SDS011;68276;49.326;8.690;2023-04-15T03:08:36;7.43;;;2.17;;
78887;SDS011;68276;49.326;8.690;2023-04-15T03:11:02;6.87;;;1.90;;
78887;SDS011;68276;49.326;8.690;2023-04-15T03:13:28;6.60;;;1.95;;
78887;SDS011;68276;49.326;8.690;2023-04-15T03:15:53;7.03;;;2.17;;
78887;SDS011;68276;49.326;8.690;2023-04-15T03:18:19;8.55;;;2.10;;
78887;SDS011;68276;49.326;8.690;2023-04-15T03:20:44;9.17;;;2.40;;
78887;SDS011;68276;49.326;8.690;2023-04-15T03:23:10;5.88;;;1.90;;
78887;SDS011;68276;49.326;8.690;2023-04-15T03:25:35;7.38;;;2.20;;
78887;SDS011;68276;49.326;8.690;2023-04-15T03:28:01;6.63;;;2.05;;
78887;SDS011;68276;49.326;8.690;2023-04-15T03:30:27;7.28;;;1.98;;
78887;SDS011;68276;49.326;8.690;2023-04-15T03:32:53;9.77;;;2.15;;
78887;SDS011;68276;49.326;8.690;2023-04-15T03:35:18;7.55;;;2.05;;
78887;SDS011;68276;49.326;8.690;2023-04-15T03:37:44;6.93;;;1.75;;
78887;SDS011;68276;49.326;8.690;2023-04-15T03:40:09;7.68;;;2.05;;
78887;SDS011;68276;49.326;8.690;2023-04-15T03:42:35;6.80;;;2.10;;
78887;SDS011;68276;49.326;8.690;2023-04-15T03:45:01;10.15;;;2.03;;
78887;SDS011;68276;49.326;8.690;2023-04-15T03:47:26;9.10;;;2.70;;
78887;SDS011;68276;49.326;8.690;2023-04-15T03:49:51;8.80;;;2.23;;
78887;SDS011;68276;49.326;8.690;2023-04-15T03:52:17;7.40;;;2.30;;
78887;SDS011;68276;49.326;8.690;2023-04-15T03:54:42;5.93;;;1.90;;
78887;SDS011;68276;49.326;8.690;2023-04-15T03:57:07;9.50;;;2.43;;
78887;SDS011;68276;49.326;8.690;2023-04-15T03:59:33;8.63;;;2.20;;
78887;SDS011;68276;49.326;8.690;2023-04-15T04:01:58;10.73;;;2.27;;
78887;SDS011;68276;49.326;8.690;2023-04-15T04:04:23;7.87;;;2.20;;
78887;SDS011;68276;49.326;8.690;2023-04-15T04:06:49;7.97;;;2.03;;
78887;SDS011;68276;49.326;8.690;2023-04-15T04:09:14;8.73;;;2.17;;
78887;SDS011;68276;49.326;8.690;2023-04-15T04:11:40;7.83;;;2.17;;
78887;SDS011;68276;49.326;8.690;2023-04-15T04:14:05;8.80;;;2.17;;
78887;SDS011;68276;49.326;8.690;2023-04-15T04:16:31;5.67;;;1.80;;
78887;SDS011;68276;49.326;8.690;2023-04-15T04:18:56;7.90;;;2.33;;
78887;SDS011;68276;49.326;8.690;2023-04-15T04:21:21;7.13;;;2.23;;
78887;SDS011;68276;49.326;8.690;2023-04-15T04:23:47;7.95;;;2.10;;
78887;SDS011;68276;49.326;8.690;2023-04-15T04:26:12;7.00;;;2.33;;
78887;SDS011;68276;49.326;8.690;2023-04-15T04:28:38;7.47;;;1.92;;
78887;SDS011;68276;49.326;8.690;2023-04-15T04:31:06;6.38;;;1.92;;
78887;SDS011;68276;49.326;8.690;2023-04-15T04:33:32;8.50;;;2.05;;
78887;SDS011;68276;49.326;8.690;2023-04-15T04:35:57;6.57;;;1.88;;
78887;SDS011;68276;49.326;8.690;2023-04-15T04:38:23;7.07;;;2.20;;
78887;SDS011;68276;49.326;8.690;2023-04-15T04:40:48;9.95;;;2.22;;
78887;SDS011;68276;49.326;8.690;2023-04-15T04:43:14;6.70;;;1.90;;
78887;SDS011;68276;49.326;8.690;2023-04-15T04:45:40;7.57;;;2.20;;
78887;SDS011;68276;49.326;8.690;2023-04-15T04:48:05;6.32;;;2.10;;
78887;SDS011;68276;49.326;8.690;2023-04-15T04:52:58;7.47;;;1.73;;
78887;SDS011;68276;49.326;8.690;2023-04-15T04:55:24;4.35;;;1.63;;
78887;SDS011;68276;49.326;8.690;2023-04-15T04:57:49;7.40;;;1.35;;
78887;SDS011;68276;49.326;8.690;2023-04-15T05:00:15;7.35;;;1.80;;
78887;SDS011;68276;49.326;8.690;2023-04-15T05:02:40;6.45;;;1.45;;
78887;SDS011;68276;49.326;8.690;2023-04-15T05:05:08;7.63;;;1.70;;
78887;SDS011;68276;49.326;8.690;2023-04-15T05:07:34;7.88;;;2.15;;
78887;SDS011;68276;49.326;8.690;2023-04-15T05:09:59;6.43;;;1.60;;
78887;SDS011;68276;49.326;8.690;2023-04-15T05:12:25;5.85;;;1.88;;
78887;SDS011;68276;49.326;8.690;2023-04-15T05:14:50;6.30;;;1.65;;
78887;SDS011;68276;49.326;8.690;2023-04-15T05:17:16;7.82;;;2.13;;
78887;SDS011;68276;49.326;8.690;2023-04-15T05:19:41;6.93;;;1.80;;
78887;SDS011;68276;49.326;8.690;2023-04-15T05:22:07;7.43;;;2.00;;
78887;SDS011;68276;49.326;8.690;2023-04-15T05:24:32;6.07;;;1.70;;
78887;SDS011;68276;49.326;8.690;2023-04-15T05:26:57;7.20;;;1.67;;
78887;SDS011;68276;49.326;8.690;2023-04-15T05:29:23;6.00;;;1.80;;
78887;SDS011;68276;49.326;8.690;2023-04-15T05:31:48;7.37;;;2.33;;
78887;SDS011;68276;49.326;8.690;2023-04-15T05:34:14;7.57;;;2.40;;
78887;SDS011;68276;49.326;8.690;2023-04-15T05:36:40;6.07;;;2.03;;
78887;SDS011;68276;49.326;8.690;2023-04-15T05:39:06;7.05;;;2.10;;
78887;SDS011;68276;49.326;8.690;2023-04-15T05:41:31;6.90;;;2.23;;
78887;SDS011;68276;49.326;8.690;2023-04-15T05:43:57;6.53;;;2.67;;
78887;SDS011;68276;49.326;8.690;2023-04-15T05:46:22;11.73;;;3.67;;
78887;SDS011;68276;49.326;8.690;2023-04-15T05:48:47;10.25;;;2.85;;
78887;SDS011;68276;49.326;8.690;2023-04-15T05:51:13;8.83;;;2.80;;
78887;SDS011;68276;49.326;8.690;2023-04-15T05:53:38;10.23;;;2.40;;
78887;SDS011;68276;49.326;8.690;2023-04-15T05:56:05;9.02;;;2.58;;
78887;SDS011;68276;49.326;8.690;2023-04-15T05:58:31;6.18;;;2.22;;
78887;SDS011;68276;49.326;8.690;2023-04-15T06:00:56;7.35;;;2.20;;
78887;SDS011;68276;49.326;8.690;2023-04-15T06:03:22;8.80;;;2.25;;
78887;SDS011;68276;49.326;8.690;2023-04-15T06:05:47;8.80;;;2.10;;
78887;SDS011;68276;49.326;8.690;2023-04-15T06:08:13;7.83;;;2.50;;
78887;SDS011;68276;49.326;8.690;2023-04-15T06:10:38;10.73;;;2.45;;
78887;SDS011;68276;49.326;8.690;2023-04-15T06:13:04;7.07;;;2.00;;
78887;SDS011;68276;49.326;8.690;2023-04-15T06:15:30;8.15;;;2.42;;
78887;SDS011;68276;49.326;8.690;2023-04-15T06:17:55;9.77;;;2.20;;
78887;SDS011;68276;49.326;8.690;2023-04-15T06:20:21;5.55;;;2.00;;
78887;SDS011;68276;49.326;8.690;2023-04-15T06:22:46;7.95;;;2.40;;
78887;SDS011;68276;49.326;8.690;2023-04-15T06:25:12;8.90;;;2.53;;
78887;SDS011;68276;49.326;8.690;2023-04-15T06:27:38;9.35;;;2.50;;
78887;SDS011;68276;49.326;8.690;2023-04-15T06:30:03;9.07;;;2.47;;
78887;SDS011;68276;49.326;8.690;2023-04-15T06:32:30;22.25;;;3.95;;
78887;SDS011;68276;49.326;8.690;2023-04-15T06:34:56;8.48;;;3.00;;
78887;SDS011;68276;49.326;8.690;2023-04-15T06:37:24;9.35;;;2.97;;
78887;SDS011;68276;49.326;8.690;2023-04-15T06:39:50;9.57;;;3.37;;
78887;SDS011;68276;49.326;8.690;2023-04-15T06:42:15;7.65;;;2.38;;
78887;SDS011;68276;49.326;8.690;2023-04-15T06:44:41;8.57;;;2.90;;
78887;SDS011;68276;49.326;8.690;2023-04-15T06:47:06;8.68;;;3.08;;
78887;SDS011;68276;49.326;8.690;2023-04-15T06:49:33;8.25;;;2.63;;
78887;SDS011;68276;49.326;8.690;2023-04-15T06:51:59;9.48;;;2.83;;
78887;SDS011;68276;49.326;8.690;2023-04-15T06:54:24;8.07;;;3.22;;
78887;SDS011;68276;49.326;8.690;2023-04-15T06:56:50;10.02;;;2.85;;
78887;SDS011;68276;49.326;8.690;2023-04-15T06:59:16;11.35;;;3.45;;
78887;SDS011;68276;49.326;8.690;2023-04-15T07:01:41;9.10;;;3.50;;
78887;SDS011;68276;49.326;8.690;2023-04-15T07:04:07;10.13;;;2.97;;
78887;SDS011;68276;49.326;8.690;2023-04-15T07:06:32;8.27;;;2.93;;
78887;SDS011;68276;49.326;8.690;2023-04-15T07:08:57;9.93;;;2.87;;
78887;SDS011;68276;49.326;8.690;2023-04-15T07:11:24;9.90;;;3.25;;
78887;SDS011;68276;49.326;8.690;2023-04-15T07:13:50;10.27;;;3.05;;
78887;SDS011;68276;49.326;8.690;2023-04-15T07:16:16;11.90;;;3.37;;
78887;SDS011;68276;49.326;8.690;2023-04-15T07:18:41;8.13;;;3.10;;
78887;SDS011;68276;49.326;8.690;2023-04-15T07:21:07;12.65;;;3.80;;
78887;SDS011;68276;49.326;8.690;2023-04-15T07:23:33;8.93;;;3.05;;
78887;SDS011;68276;49.326;8.690;2023-04-15T07:25:58;9.55;;;3.65;;
78887;SDS011;68276;49.326;8.690;2023-04-15T07:28:24;12.65;;;3.20;;
78887;SDS011;68276;49.326;8.690;2023-04-15T07:30:49;9.03;;;3.30;;
78887;SDS011;68276;49.326;8.690;2023-04-15T07:33:15;7.63;;;2.95;;
78887;SDS011;68276;49.326;8.690;2023-04-15T07:35:41;12.18;;;3.83;;
78887;SDS011;68276;49.326;8.690;2023-04-15T07:38:06;13.32;;;5.95;;
78887;SDS011;68276;49.326;8.690;2023-04-15T07:40:32;8.63;;;3.20;;
78887;SDS011;68276;49.326;8.690;2023-04-15T07:42:58;9.23;;;3.03;;
78887;SDS011;68276;49.326;8.690;2023-04-15T07:45:23;10.07;;;3.60;;
78887;SDS011;68276;49.326;8.690;2023-04-15T07:47:49;10.07;;;3.55;;
78887;SDS011;68276;49.326;8.690;2023-04-15T07:50:15;14.90;;;3.45;;
78887;SDS011;68276;49.326;8.690;2023-04-15T07:52:41;7.57;;;3.00;;
78887;SDS011;68276;49.326;8.690;2023-04-15T07:55:07;11.07;;;3.78;;
78887;SDS011;68276;49.326;8.690;2023-04-15T07:59:59;11.23;;;4.13;;
78887;SDS011;68276;49.326;8.690;2023-04-15T08:02:25;9.63;;;4.13;;
78887;SDS011;68276;49.326;8.690;2023-04-15T08:04:51;12.63;;;3.85;;
78887;SDS011;68276;49.326;8.690;2023-04-15T08:07:17;9.60;;;3.97;;
78887;SDS011;68276;49.326;8.690;2023-04-15T08:09:42;10.93;;;4.32;;
78887;SDS011;68276;49.326;8.690;2023-04-15T08:12:08;10.75;;;3.97;;
78887;SDS011;68276;49.326;8.690;2023-04-15T08:14:36;9.40;;;3.53;;
78887;SDS011;68276;49.326;8.690;2023-04-15T08:17:02;9.45;;;4.18;;
78887;SDS011;68276;49.326;8.690;2023-04-15T08:19:28;10.38;;;3.95;;
78887;SDS011;68276;49.326;8.690;2023-04-15T08:21:54;11.82;;;4.32;;
78887;SDS011;68276;49.326;8.690;2023-04-15T08:24:20;11.15;;;3.80;;
78887;SDS011;68276;49.326;8.690;2023-04-15T08:26:46;10.18;;;3.78;;
78887;SDS011;68276;49.326;8.690;2023-04-15T08:29:11;12.87;;;4.60;;
78887;SDS011;68276;49.326;8.690;2023-04-15T08:31:37;9.35;;;3.85;;
78887;SDS011;68276;49.326;8.690;2023-04-15T08:34:02;9.68;;;4.10;;
78887;SDS011;68276;49.326;8.690;2023-04-15T08:36:28;7.65;;;3.28;;
78887;SDS011;68276;49.326;8.690;2023-04-15T08:38:53;10.85;;;2.97;;
78887;SDS011;68276;49.326;8.690;2023-04-15T08:41:23;9.85;;;3.22;;
78887;SDS011;68276;49.326;8.690;2023-04-15T08:43:56;11.70;;;3.35;;
78887;SDS011;68276;49.326;8.690;2023-04-15T08:46:22;7.05;;;2.80;;
78887;SDS011;68276;49.326;8.690;2023-04-15T08:48:48;11.10;;;3.13;;
78887;SDS011;68276;49.326;8.690;2023-04-15T08:51:15;7.82;;;2.80;;
78887;SDS011;68276;49.326;8.690;2023-04-15T08:53:44;10.35;;;3.45;;
78887;SDS011;68276;49.326;8.690;2023-04-15T08:56:11;10.70;;;3.85;;
78887;SDS011;68276;49.326;8.690;2023-04-15T08:58:39;11.00;;;3.65;;
78887;SDS011;68276;49.326;8.690;2023-04-15T09:01:05;10.13;;;3.33;;
78887;SDS011;68276;49.326;8.690;2023-04-15T09:03:31;10.23;;;3.45;;
78887;SDS011;68276;49.326;8.690;2023-04-15T09:05:58;7.78;;;3.50;;
78887;SDS011;68276;49.326;8.690;2023-04-15T09:08:24;11.40;;;3.30;;
78887;SDS011;68276;49.326;8.690;2023-04-15T09:10:49;8.52;;;3.08;;
78887;SDS011;68276;49.326;8.690;2023-04-15T09:13:15;9.30;;;2.83;;
78887;SDS011;68276;49.326;8.690;2023-04-15T09:15:40;9.20;;;3.08;;
78887;SDS011;68276;49.326;8.690;2023-04-15T09:18:06;9.98;;;3.05;;
78887;SDS011;68276;49.326;8.690;2023-04-15T09:20:39;10.23;;;3.35;;
78887;SDS011;68276;49.326;8.690;2023-04-15T09:23:11;9.05;;;3.13;;
78887;SDS011;68276;49.326;8.690;2023-04-15T09:25:38;11.18;;;3.30;;
78887;SDS011;68276;49.326;8.690;2023-04-15T09:28:06;9.07;;;3.22;;
78887;SDS011;68276;49.326;8.690;2023-04-15T09:30:32;8.48;;;3.17;;
78887;SDS011;68276;49.326;8.690;2023-04-15T09:32:58;8.85;;;3.20;;
78887;SDS011;68276;49.326;8.690;2023-04-15T09:35:26;9.57;;;3.05;;
78887;SDS011;68276;49.326;8.690;2023-04-15T09:37:52;10.52;;;3.42;;
78887;SDS011;68276;49.326;8.690;2023-04-15T09:43:04;7.38;;;2.83;;
78887;SDS011;68276;49.326;8.690;2023-04-15T09:45:31;9.50;;;3.00;;
78887;SDS011;68276;49.326;8.690;2023-04-15T09:47:58;9.07;;;3.15;;
78887;SDS011;68276;49.326;8.690;2023-04-15T09:50:39;7.00;;;2.72;;
78887;SDS011;68276;49.326;8.690;2023-04-15T09:53:08;10.55;;;3.45;;
78887;SDS011;68276;49.326;8.690;2023-04-15T09:55:35;11.40;;;3.33;;
78887;SDS011;68276;49.326;8.690;2023-04-15T09:58:00;9.88;;;3.58;;
78887;SDS011;68276;49.326;8.690;2023-04-15T10:00:26;8.55;;;2.55;;
78887;SDS011;68276;49.326;8.690;2023-04-15T10:02:53;8.02;;;3.10;;
78887;SDS011;68276;49.326;8.690;2023-04-15T10:05:19;8.55;;;2.85;;
78887;SDS011;68276;49.326;8.690;2023-04-15T10:07:45;8.43;;;2.47;;
78887;SDS011;68276;49.326;8.690;2023-04-15T10:10:10;10.57;;;3.13;;
78887;SDS011;68276;49.326;8.690;2023-04-15T10:12:37;8.80;;;2.85;;
78887;SDS011;68276;49.326;8.690;2023-04-15T10:15:05;9.55;;;2.60;;
78887;SDS011;68276;49.326;8.690;2023-04-15T10:17:44;10.35;;;2.78;;
78887;SDS011;68276;49.326;8.690;2023-04-15T10:20:11;10.48;;;2.75;;
78887;SDS011;68276;49.326;8.690;2023-04-15T10:22:39;7.70;;;2.38;;
78887;SDS011;68276;49.326;8.690;2023-04-15T10:25:05;10.35;;;2.90;;
78887;SDS011;68276;49.326;8.690;2023-04-15T10:27:31;6.70;;;2.53;;
78887;SDS011;68276;49.326;8.690;2023-04-15T10:29:59;6.47;;;2.15;;
78887;SDS011;68276;49.326;8.690;2023-04-15T10:32:25;6.80;;;2.30;;
78887;SDS011;68276;49.326;8.690;2023-04-15T10:34:51;7.85;;;2.35;;
78887;SDS011;68276;49.326;8.690;2023-04-15T10:37:22;6.30;;;2.25;;
78887;SDS011;68276;49.326;8.690;2023-04-15T10:39:57;6.15;;;2.42;;
78887;SDS011;68276;49.326;8.690;2023-04-15T10:42:23;8.90;;;3.00;;
78887;SDS011;68276;49.326;8.690;2023-04-15T10:44:49;8.70;;;3.20;;
78887;SDS011;68276;49.326;8.690;2023-04-15T10:47:17;8.02;;;2.90;;
78887;SDS011;68276;49.326;8.690;2023-04-15T10:49:48;10.20;;;3.20;;
78887;SDS011;68276;49.326;8.690;2023-04-15T10:52:15;10.85;;;2.80;;
78887;SDS011;68276;49.326;8.690;2023-04-15T10:54:42;7.53;;;2.90;;
78887;SDS011;68276;49.326;8.690;2023-04-15T10:57:12;6.85;;;2.97;;
78887;SDS011;68276;49.326;8.690;2023-04-15T10:59:59;9.05;;;2.97;;
78887;SDS011;68276;49.326;8.690;2023-04-15T11:05:11;10.27;;;3.17;;
78887;SDS011;68276;49.326;8.690;2023-04-15T11:12:38;6.85;;;2.63;;
78887;SDS011;68276;49.326;8.690;2023-04-15T11:18:08;5.90;;;1.80;;
78887;SDS011;68276;49.326;8.690;2023-04-15T11:20:35;8.43;;;1.80;;
78887;SDS011;68276;49.326;8.690;2023-04-15T11:23:01;7.32;;;2.30;;
78887;SDS011;68276;49.326;8.690;2023-04-15T11:25:28;4.90;;;1.65;;
78887;SDS011;68276;49.326;8.690;2023-04-15T11:27:55;5.22;;;1.80;;
78887;SDS011;68276;49.326;8.690;2023-04-15T11:30:21;6.15;;;1.90;;
78887;SDS011;68276;49.326;8.690;2023-04-15T11:32:48;6.15;;;2.10;;
78887;SDS011;68276;49.326;8.690;2023-04-15T11:35:15;5.72;;;1.75;;
78887;SDS011;68276;49.326;8.690;2023-04-15T11:37:42;7.60;;;2.05;;
78887;SDS011;68276;49.326;8.690;2023-04-15T11:40:08;6.43;;;1.95;;
78887;SDS011;68276;49.326;8.690;2023-04-15T11:42:34;9.48;;;1.90;;
78887;SDS011;68276;49.326;8.690;2023-04-15T11:45:07;6.18;;;1.90;;
78887;SDS011;68276;49.326;8.690;2023-04-15T11:47:42;5.43;;;1.65;;
78887;SDS011;68276;49.326;8.690;2023-04-15T11:50:15;4.83;;;1.60;;
78887;SDS011;68276;49.326;8.690;2023-04-15T11:52:41;5.13;;;1.33;;
78887;SDS011;68276;49.326;8.690;2023-04-15T11:55:16;5.32;;;1.77;;
78887;SDS011;68276;49.326;8.690;2023-04-15T11:57:42;3.72;;;1.40;;
78887;SDS011;68276;49.326;8.690;2023-04-15T12:00:07;5.20;;;1.33;;
78887;SDS011;68276;49.326;8.690;2023-04-15T12:02:35;7.35;;;1.63;;
78887;SDS011;68276;49.326;8.690;2023-04-15T12:05:02;7.05;;;1.60;;
78887;SDS011;68276;49.326;8.690;2023-04-15T12:07:29;5.68;;;1.60;;
78887;SDS011;68276;49.326;8.690;2023-04-15T12:09:54;6.45;;;1.40;;
78887;SDS011;68276;49.326;8.690;2023-04-15T12:14:46;5.13;;;1.30;;
78887;SDS011;68276;49.326;8.690;2023-04-15T12:17:12;5.15;;;1.35;;
78887;SDS011;68276;49.326;8.690;2023-04-15T12:19:38;4.95;;;1.50;;
78887;SDS011;68276;49.326;8.690;2023-04-15T12:22:08;4.85;;;1.30;;
78887;SDS011;68276;49.326;8.690;2023-04-15T12:24:35;6.28;;;1.80;;
78887;SDS011;68276;49.326;8.690;2023-04-15T12:27:10;3.38;;;1.30;;
78887;SDS011;68276;49.326;8.690;2023-04-15T12:29:37;4.03;;;1.33;;
78887;SDS011;68276;49.326;8.690;2023-04-15T12:34:37;4.18;;;1.40;;
78887;SDS011;68276;49.326;8.690;2023-04-15T12:37:06;4.88;;;1.67;;
78887;SDS011;68276;49.326;8.690;2023-04-15T12:39:39;5.00;;;1.30;;
78887;SDS011;68276;49.326;8.690;2023-04-15T12:42:07;4.72;;;1.50;;
78887;SDS011;68276;49.326;8.690;2023-04-15T12:44:32;4.88;;;1.45;;
78887;SDS011;68276;49.326;8.690;2023-04-15T12:49:24;5.47;;;1.60;;
78887;SDS011;68276;49.326;8.690;2023-04-15T12:51:51;5.57;;;1.50;;
78887;SDS011;68276;49.326;8.690;2023-04-15T12:54:18;4.88;;;1.30;;
78887;SDS011;68276;49.326;8.690;2023-04-15T12:56:44;4.30;;;1.33;;
78887;SDS011;68276;49.326;8.690;2023-04-15T12:59:11;5.00;;;1.83;;
78887;SDS011;68276;49.326;8.690;2023-04-15T13:01:37;6.50;;;1.48;;
78887;SDS011;68276;49.326;8.690;2023-04-15T13:04:03;5.10;;;1.50;;
78887;SDS011;68276;49.326;8.690;2023-04-15T13:06:29;4.05;;;1.30;;
78887;SDS011;68276;49.326;8.690;2023-04-15T13:08:57;4.63;;;1.40;;
78887;SDS011;68276;49.326;8.690;2023-04-15T13:11:23;6.10;;;1.60;;
78887;SDS011;68276;49.326;8.690;2023-04-15T13:13:49;6.78;;;2.25;;
78887;SDS011;68276;49.326;8.690;2023-04-15T13:16:16;5.50;;;1.55;;
78887;SDS011;68276;49.326;8.690;2023-04-15T13:18:42;6.57;;;2.20;;
78887;SDS011;68276;49.326;8.690;2023-04-15T13:21:09;6.15;;;1.90;;
78887;SDS011;68276;49.326;8.690;2023-04-15T13:23:35;6.72;;;2.10;;
78887;SDS011;68276;49.326;8.690;2023-04-15T13:26:01;9.13;;;2.67;;
78887;SDS011;68276;49.326;8.690;2023-04-15T13:28:26;6.20;;;2.07;;
78887;SDS011;68276;49.326;8.690;2023-04-15T13:30:52;6.50;;;1.70;;
78887;SDS011;68276;49.326;8.690;2023-04-15T13:33:17;4.20;;;1.33;;
78887;SDS011;68276;49.326;8.690;2023-04-15T13:35:42;7.23;;;1.97;;
78887;SDS011;68276;49.326;8.690;2023-04-15T13:38:08;5.75;;;1.50;;
78887;SDS011;68276;49.326;8.690;2023-04-15T13:40:33;19.90;;;3.53;;
78887;SDS011;68276;49.326;8.690;2023-04-15T13:42:59;4.50;;;1.30;;
78887;SDS011;68276;49.326;8.690;2023-04-15T13:45:25;3.97;;;1.10;;
78887;SDS011;68276;49.326;8.690;2023-04-15T13:47:50;3.38;;;1.00;;
78887;SDS011;68276;49.326;8.690;2023-04-15T13:50:16;3.40;;;0.90;;
78887;SDS011;68276;49.326;8.690;2023-04-15T13:52:41;1.85;;;0.75;;
78887;SDS011;68276;49.326;8.690;2023-04-15T13:55:09;4.75;;;1.10;;
78887;SDS011;68276;49.326;8.690;2023-04-15T13:57:34;3.33;;;1.08;;
78887;SDS011;68276;49.326;8.690;2023-04-15T14:00:00;5.30;;;1.10;;
78887;SDS011;68276;49.326;8.690;2023-04-15T14:02:27;3.05;;;1.10;;
78887;SDS011;68276;49.326;8.690;2023-04-15T14:04:53;3.00;;;1.03;;
78887;SDS011;68276;49.326;8.690;2023-04-15T14:07:18;4.22;;;1.23;;
78887;SDS011;68276;49.326;8.690;2023-04-15T14:09:43;5.25;;;1.15;;
78887;SDS011;68276;49.326;8.690;2023-04-15T14:12:09;2.73;;;1.00;;
78887;SDS011;68276;49.326;8.690;2023-04-15T14:14:35;3.92;;;1.02;;
78887;SDS011;68276;49.326;8.690;2023-04-15T14:17:01;3.70;;;0.90;;
78887;SDS011;68276;49.326;8.690;2023-04-15T14:19:28;4.68;;;0.88;;
78887;SDS011;68276;49.326;8.690;2023-04-15T14:21:54;2.70;;;1.00;;
78887;SDS011;68276;49.326;8.690;2023-04-15T14:24:20;2.83;;;1.10;;
78887;SDS011;68276;49.326;8.690;2023-04-15T14:26:45;3.60;;;1.37;;
78887;SDS011;68276;49.326;8.690;2023-04-15T14:29:17;4.25;;;1.10;;
78887;SDS011;68276;49.326;8.690;2023-04-15T14:31:42;3.45;;;0.88;;
78887;SDS011;68276;49.326;8.690;2023-04-15T14:36:34;2.72;;;1.02;;
78887;SDS011;68276;49.326;8.690;2023-04-15T14:39:00;1.70;;;0.67;;
78887;SDS011;68276;49.326;8.690;2023-04-15T14:41:25;2.38;;;1.00;;
78887;SDS011;68276;49.326;8.690;2023-04-15T14:43:51;2.90;;;0.85;;
78887;SDS011;68276;49.326;8.690;2023-04-15T14:46:16;1.65;;;0.90;;
78887;SDS011;68276;49.326;8.690;2023-04-15T14:48:41;2.45;;;0.80;;
78887;SDS011;68276;49.326;8.690;2023-04-15T14:51:07;2.85;;;0.90;;
78887;SDS011;68276;49.326;8.690;2023-04-15T14:53:32;2.55;;;1.17;;
78887;SDS011;68276;49.326;8.690;2023-04-15T14:55:58;3.42;;;1.05;;
78887;SDS011;68276;49.326;8.690;2023-04-15T14:58:23;3.72;;;1.10;;
78887;SDS011;68276;49.326;8.690;2023-04-15T15:00:49;4.10;;;1.13;;
78887;SDS011;68276;49.326;8.690;2023-04-15T15:03:14;3.05;;;1.20;;
78887;SDS011;68276;49.326;8.690;2023-04-15T15:05:40;3.88;;;1.17;;
78887;SDS011;68276;49.326;8.690;2023-04-15T15:08:07;3.75;;;1.05;;
78887;SDS011;68276;49.326;8.690;2023-04-15T15:12:59;1.98;;;0.93;;